sensor_id;sensor_type;location;lat;lon;timestamp;temperature;humidity
7738;DHT22;29398;45.328;5.558;2023-02-25T00:00:23;11.70;97.40
7738;DHT22;29398;45.328;5.558;2023-02-25T00:01:26;11.70;97.40
7738;DHT22;29398;45.328;5.558;2023-02-25T00:02:28;11.70;97.50
7738;DHT22;29398;45.328;5.558;2023-02-25T00:03:30;11.70;97.20
7738;DHT22;29398;45.328;5.558;2023-02-25T00:04:32;11.60;97.30
7738;DHT22;29398;45.328;5.558;2023-02-25T00:05:36;11.60;97.30
7738;DHT22;29398;45.328;5.558;2023-02-25T00:06:39;11.60;97.30
7738;DHT22;29398;45.328;5.558;2023-02-25T00:07:41;11.60;97.30
7738;DHT22;29398;45.328;5.558;2023-02-25T00:08:44;11.60;97.20
7738;DHT22;29398;45.328;5.558;2023-02-25T00:09:46;11.60;97.20
7738;DHT22;29398;45.328;5.558;2023-02-25T00:10:56;11.60;97.10
7738;DHT22;29398;45.328;5.558;2023-02-25T00:11:57;11.60;96.80
7738;DHT22;29398;45.328;5.558;2023-02-25T00:12:59;11.70;96.70
7738;DHT22;29398;45.328;5.558;2023-02-25T00:14:00;11.70;96.60
7738;DHT22;29398;45.328;5.558;2023-02-25T00:15:03;11.70;96.60
7738;DHT22;29398;45.328;5.558;2023-02-25T00:16:06;11.70;96.80
7738;DHT22;29398;45.328;5.558;2023-02-25T00:17:09;11.70;96.40
7738;DHT22;29398;45.328;5.558;2023-02-25T00:18:10;11.60;96.50
7738;DHT22;29398;45.328;5.558;2023-02-25T00:19:12;11.60;96.70
7738;DHT22;29398;45.328;5.558;2023-02-25T00:20:13;11.60;96.70
7738;DHT22;29398;45.328;5.558;2023-02-25T00:21:17;11.50;97.20
7738;DHT22;29398;45.328;5.558;2023-02-25T00:22:18;11.50;97.00
7738;DHT22;29398;45.328;5.558;2023-02-25T00:23:22;11.40;97.20
7738;DHT22;29398;45.328;5.558;2023-02-25T00:24:23;11.40;96.90
7738;DHT22;29398;45.328;5.558;2023-02-25T00:25:25;11.30;97.20
7738;DHT22;29398;45.328;5.558;2023-02-25T00:26:28;11.30;97.60
7738;DHT22;29398;45.328;5.558;2023-02-25T00:27:30;11.20;97.10
7738;DHT22;29398;45.328;5.558;2023-02-25T00:28:32;11.20;96.70
7738;DHT22;29398;45.328;5.558;2023-02-25T00:29:34;11.20;96.90
7738;DHT22;29398;45.328;5.558;2023-02-25T00:30:38;11.10;96.90
7738;DHT22;29398;45.328;5.558;2023-02-25T00:31:40;11.10;97.30
7738;DHT22;29398;45.328;5.558;2023-02-25T00:32:43;11.10;97.60
7738;DHT22;29398;45.328;5.558;2023-02-25T00:33:46;11.10;97.90
7738;DHT22;29398;45.328;5.558;2023-02-25T00:34:47;11.10;97.70
7738;DHT22;29398;45.328;5.558;2023-02-25T00:35:49;11.20;97.60
7738;DHT22;29398;45.328;5.558;2023-02-25T00:36:50;11.10;97.70
7738;DHT22;29398;45.328;5.558;2023-02-25T00:37:53;11.20;97.60
7738;DHT22;29398;45.328;5.558;2023-02-25T00:38:56;11.20;97.80
7738;DHT22;29398;45.328;5.558;2023-02-25T00:39:58;11.20;97.90
7738;DHT22;29398;45.328;5.558;2023-02-25T00:41:04;11.20;98.00
7738;DHT22;29398;45.328;5.558;2023-02-25T00:42:13;11.20;97.80
7738;DHT22;29398;45.328;5.558;2023-02-25T00:43:15;11.20;98.50
7738;DHT22;29398;45.328;5.558;2023-02-25T00:44:17;11.20;98.70
7738;DHT22;29398;45.328;5.558;2023-02-25T00:45:19;12.30;98.90
7738;DHT22;29398;45.328;5.558;2023-02-25T00:46:21;11.20;98.70
7738;DHT22;29398;45.328;5.558;2023-02-25T00:47:24;11.20;98.40
7738;DHT22;29398;45.328;5.558;2023-02-25T00:48:26;11.20;98.10
7738;DHT22;29398;45.328;5.558;2023-02-25T00:49:30;11.20;98.10
7738;DHT22;29398;45.328;5.558;2023-02-25T00:50:31;11.20;98.30
7738;DHT22;29398;45.328;5.558;2023-02-25T00:51:33;11.10;98.60
7738;DHT22;29398;45.328;5.558;2023-02-25T00:52:35;11.00;98.50
7738;DHT22;29398;45.328;5.558;2023-02-25T00:53:38;11.00;99.00
7738;DHT22;29398;45.328;5.558;2023-02-25T00:54:40;11.00;99.30
7738;DHT22;29398;45.328;5.558;2023-02-25T00:55:42;11.00;99.20
7738;DHT22;29398;45.328;5.558;2023-02-25T00:56:44;11.00;99.10
7738;DHT22;29398;45.328;5.558;2023-02-25T00:57:46;10.90;99.50
7738;DHT22;29398;45.328;5.558;2023-02-25T00:58:49;10.90;99.60
7738;DHT22;29398;45.328;5.558;2023-02-25T00:59:51;10.80;99.80
7738;DHT22;29398;45.328;5.558;2023-02-25T01:00:52;10.80;99.90
7738;DHT22;29398;45.328;5.558;2023-02-25T01:01:54;10.80;99.30
7738;DHT22;29398;45.328;5.558;2023-02-25T01:02:56;10.80;99.30
7738;DHT22;29398;45.328;5.558;2023-02-25T01:03:58;10.80;99.20
7738;DHT22;29398;45.328;5.558;2023-02-25T01:05:00;10.80;99.40
7738;DHT22;29398;45.328;5.558;2023-02-25T01:06:03;10.80;99.40
7738;DHT22;29398;45.328;5.558;2023-02-25T01:07:04;10.80;99.60
7738;DHT22;29398;45.328;5.558;2023-02-25T01:08:07;10.80;99.70
7738;DHT22;29398;45.328;5.558;2023-02-25T01:09:09;10.80;98.90
7738;DHT22;29398;45.328;5.558;2023-02-25T01:10:15;10.80;99.10
7738;DHT22;29398;45.328;5.558;2023-02-25T01:11:18;10.80;99.90
7738;DHT22;29398;45.328;5.558;2023-02-25T01:12:21;10.80;99.90
7738;DHT22;29398;45.328;5.558;2023-02-25T01:13:22;10.80;99.90
7738;DHT22;29398;45.328;5.558;2023-02-25T01:14:24;10.70;99.90
7738;DHT22;29398;45.328;5.558;2023-02-25T01:15:26;10.60;99.90
7738;DHT22;29398;45.328;5.558;2023-02-25T01:16:32;10.50;99.90
7738;DHT22;29398;45.328;5.558;2023-02-25T01:17:33;10.40;99.90
7738;DHT22;29398;45.328;5.558;2023-02-25T01:18:35;10.20;99.90
7738;DHT22;29398;45.328;5.558;2023-02-25T01:19:36;10.20;99.90
7738;DHT22;29398;45.328;5.558;2023-02-25T01:20:39;10.20;99.90
7738;DHT22;29398;45.328;5.558;2023-02-25T01:21:43;10.20;99.90
7738;DHT22;29398;45.328;5.558;2023-02-25T01:22:46;10.10;99.90
7738;DHT22;29398;45.328;5.558;2023-02-25T01:23:48;10.20;99.90
7738;DHT22;29398;45.328;5.558;2023-02-25T01:24:50;10.20;99.90
7738;DHT22;29398;45.328;5.558;2023-02-25T01:25:55;10.20;99.90
7738;DHT22;29398;45.328;5.558;2023-02-25T01:27:00;10.20;99.90
7738;DHT22;29398;45.328;5.558;2023-02-25T01:28:02;10.20;99.90
7738;DHT22;29398;45.328;5.558;2023-02-25T01:29:06;10.20;99.90
7738;DHT22;29398;45.328;5.558;2023-02-25T01:30:09;10.20;99.90
7738;DHT22;29398;45.328;5.558;2023-02-25T01:31:16;10.30;99.90
7738;DHT22;29398;45.328;5.558;2023-02-25T01:32:19;10.30;99.90
7738;DHT22;29398;45.328;5.558;2023-02-25T01:33:22;10.30;99.90
7738;DHT22;29398;45.328;5.558;2023-02-25T01:34:24;10.40;99.90
7738;DHT22;29398;45.328;5.558;2023-02-25T01:35:26;10.40;99.90
7738;DHT22;29398;45.328;5.558;2023-02-25T01:36:29;10.40;99.90
7738;DHT22;29398;45.328;5.558;2023-02-25T01:37:32;10.40;99.90
7738;DHT22;29398;45.328;5.558;2023-02-25T01:38:33;10.40;99.90
7738;DHT22;29398;45.328;5.558;2023-02-25T01:39:36;10.40;99.90
7738;DHT22;29398;45.328;5.558;2023-02-25T01:40:37;10.40;99.90
7738;DHT22;29398;45.328;5.558;2023-02-25T01:41:41;10.50;99.90
7738;DHT22;29398;45.328;5.558;2023-02-25T01:42:43;10.50;99.90
7738;DHT22;29398;45.328;5.558;2023-02-25T01:44:01;10.50;99.90
7738;DHT22;29398;45.328;5.558;2023-02-25T01:45:28;10.50;99.90
7738;DHT22;29398;45.328;5.558;2023-02-25T01:46:32;10.50;99.90
7738;DHT22;29398;45.328;5.558;2023-02-25T01:47:35;10.60;99.90
7738;DHT22;29398;45.328;5.558;2023-02-25T01:48:39;10.60;99.90
7738;DHT22;29398;45.328;5.558;2023-02-25T01:49:42;10.50;99.90
7738;DHT22;29398;45.328;5.558;2023-02-25T01:50:49;10.50;99.90
7738;DHT22;29398;45.328;5.558;2023-02-25T01:51:52;10.60;99.90
7738;DHT22;29398;45.328;5.558;2023-02-25T01:52:56;10.60;99.90
7738;DHT22;29398;45.328;5.558;2023-02-25T01:54:00;10.60;99.90
7738;DHT22;29398;45.328;5.558;2023-02-25T01:55:08;10.60;99.90
7738;DHT22;29398;45.328;5.558;2023-02-25T01:56:11;10.60;99.90
7738;DHT22;29398;45.328;5.558;2023-02-25T01:57:17;10.50;99.90
7738;DHT22;29398;45.328;5.558;2023-02-25T01:58:20;10.50;99.90
7738;DHT22;29398;45.328;5.558;2023-02-25T01:59:26;10.50;99.90
7738;DHT22;29398;45.328;5.558;2023-02-25T02:00:30;10.50;99.90
7738;DHT22;29398;45.328;5.558;2023-02-25T02:01:33;10.60;99.90
7738;DHT22;29398;45.328;5.558;2023-02-25T02:02:37;10.60;99.90
7738;DHT22;29398;45.328;5.558;2023-02-25T02:03:41;10.60;99.90
7738;DHT22;29398;45.328;5.558;2023-02-25T02:04:44;10.70;99.90
7738;DHT22;29398;45.328;5.558;2023-02-25T02:06:00;10.70;99.90
7738;DHT22;29398;45.328;5.558;2023-02-25T02:07:04;10.70;99.90
7738;DHT22;29398;45.328;5.558;2023-02-25T02:08:07;10.70;99.90
7738;DHT22;29398;45.328;5.558;2023-02-25T02:09:11;10.60;99.90
7738;DHT22;29398;45.328;5.558;2023-02-25T02:10:14;10.60;99.90
7738;DHT22;29398;45.328;5.558;2023-02-25T02:11:16;10.50;99.90
7738;DHT22;29398;45.328;5.558;2023-02-25T02:12:19;10.40;99.90
7738;DHT22;29398;45.328;5.558;2023-02-25T02:13:21;10.30;99.90
7738;DHT22;29398;45.328;5.558;2023-02-25T02:14:26;10.30;99.90
7738;DHT22;29398;45.328;5.558;2023-02-25T02:15:34;10.30;99.90
7738;DHT22;29398;45.328;5.558;2023-02-25T02:18:06;10.40;99.90
7738;DHT22;29398;45.328;5.558;2023-02-25T02:19:20;10.40;99.90
7738;DHT22;29398;45.328;5.558;2023-02-25T02:20:26;10.50;99.90
7738;DHT22;29398;45.328;5.558;2023-02-25T02:21:44;10.50;99.90
7738;DHT22;29398;45.328;5.558;2023-02-25T02:23:00;10.60;99.90
7738;DHT22;29398;45.328;5.558;2023-02-25T02:27:31;10.50;99.90
7738;DHT22;29398;45.328;5.558;2023-02-25T02:28:59;10.40;99.90
7738;DHT22;29398;45.328;5.558;2023-02-25T02:31:54;10.30;99.90
7738;DHT22;29398;45.328;5.558;2023-02-25T02:33:03;10.20;99.90
7738;DHT22;29398;45.328;5.558;2023-02-25T02:34:18;10.20;99.90
7738;DHT22;29398;45.328;5.558;2023-02-25T02:35:25;10.30;99.90
7738;DHT22;29398;45.328;5.558;2023-02-25T02:36:37;10.40;99.90
7738;DHT22;29398;45.328;5.558;2023-02-25T02:37:46;10.40;99.90
7738;DHT22;29398;45.328;5.558;2023-02-25T02:39:00;10.50;99.90
7738;DHT22;29398;45.328;5.558;2023-02-25T02:40:13;10.50;99.90
7738;DHT22;29398;45.328;5.558;2023-02-25T02:41:26;10.50;99.90
7738;DHT22;29398;45.328;5.558;2023-02-25T02:42:37;10.50;99.90
7738;DHT22;29398;45.328;5.558;2023-02-25T02:43:44;10.50;99.90
7738;DHT22;29398;45.328;5.558;2023-02-25T02:44:53;10.50;99.90
7738;DHT22;29398;45.328;5.558;2023-02-25T02:46:00;10.50;99.90
7738;DHT22;29398;45.328;5.558;2023-02-25T02:47:08;10.50;99.90
7738;DHT22;29398;45.328;5.558;2023-02-25T02:48:14;10.40;99.90
7738;DHT22;29398;45.328;5.558;2023-02-25T02:49:20;10.30;99.90
7738;DHT22;29398;45.328;5.558;2023-02-25T02:50:32;10.20;99.90
7738;DHT22;29398;45.328;5.558;2023-02-25T02:51:37;10.20;99.90
7738;DHT22;29398;45.328;5.558;2023-02-25T02:52:42;10.10;99.90
7738;DHT22;29398;45.328;5.558;2023-02-25T02:53:49;10.10;99.90
7738;DHT22;29398;45.328;5.558;2023-02-25T02:54:56;10.10;99.90
7738;DHT22;29398;45.328;5.558;2023-02-25T02:56:02;10.10;99.90
7738;DHT22;29398;45.328;5.558;2023-02-25T02:57:08;10.10;99.90
7738;DHT22;29398;45.328;5.558;2023-02-25T02:58:13;10.10;99.90
7738;DHT22;29398;45.328;5.558;2023-02-25T02:59:22;10.10;99.90
7738;DHT22;29398;45.328;5.558;2023-02-25T03:00:29;10.10;99.90
7738;DHT22;29398;45.328;5.558;2023-02-25T03:01:37;10.10;99.90
7738;DHT22;29398;45.328;5.558;2023-02-25T03:02:45;10.10;99.90
7738;DHT22;29398;45.328;5.558;2023-02-25T03:03:56;10.20;99.90
7738;DHT22;29398;45.328;5.558;2023-02-25T03:05:03;10.20;99.90
7738;DHT22;29398;45.328;5.558;2023-02-25T03:06:09;10.20;99.90
7738;DHT22;29398;45.328;5.558;2023-02-25T03:07:12;10.30;99.90
7738;DHT22;29398;45.328;5.558;2023-02-25T03:08:18;10.30;99.90
7738;DHT22;29398;45.328;5.558;2023-02-25T03:09:23;10.30;99.90
7738;DHT22;29398;45.328;5.558;2023-02-25T03:10:26;10.30;99.90
7738;DHT22;29398;45.328;5.558;2023-02-25T03:11:29;10.30;99.90
7738;DHT22;29398;45.328;5.558;2023-02-25T03:12:32;10.30;99.90
7738;DHT22;29398;45.328;5.558;2023-02-25T03:13:33;10.30;99.90
7738;DHT22;29398;45.328;5.558;2023-02-25T03:14:36;10.30;99.90
7738;DHT22;29398;45.328;5.558;2023-02-25T03:15:38;10.20;99.90
7738;DHT22;29398;45.328;5.558;2023-02-25T03:16:45;10.20;99.90
7738;DHT22;29398;45.328;5.558;2023-02-25T03:17:52;10.20;99.90
7738;DHT22;29398;45.328;5.558;2023-02-25T03:19:00;10.10;99.90
7738;DHT22;29398;45.328;5.558;2023-02-25T03:20:09;10.20;99.90
7738;DHT22;29398;45.328;5.558;2023-02-25T03:21:17;10.20;99.90
7738;DHT22;29398;45.328;5.558;2023-02-25T03:22:19;10.30;99.90
7738;DHT22;29398;45.328;5.558;2023-02-25T03:23:28;10.30;99.90
7738;DHT22;29398;45.328;5.558;2023-02-25T03:24:36;10.30;99.90
7738;DHT22;29398;45.328;5.558;2023-02-25T03:25:43;10.30;99.90
7738;DHT22;29398;45.328;5.558;2023-02-25T03:26:46;10.40;99.90
7738;DHT22;29398;45.328;5.558;2023-02-25T03:27:50;10.30;99.90
7738;DHT22;29398;45.328;5.558;2023-02-25T03:28:53;10.40;99.90
7738;DHT22;29398;45.328;5.558;2023-02-25T03:30:02;10.40;99.90
7738;DHT22;29398;45.328;5.558;2023-02-25T03:31:06;10.40;99.90
7738;DHT22;29398;45.328;5.558;2023-02-25T03:32:14;10.40;99.90
7738;DHT22;29398;45.328;5.558;2023-02-25T03:33:25;10.40;99.90
7738;DHT22;29398;45.328;5.558;2023-02-25T03:34:32;10.40;99.90
7738;DHT22;29398;45.328;5.558;2023-02-25T03:35:35;10.40;99.90
7738;DHT22;29398;45.328;5.558;2023-02-25T03:36:41;10.40;99.90
7738;DHT22;29398;45.328;5.558;2023-02-25T03:37:48;10.40;99.90
7738;DHT22;29398;45.328;5.558;2023-02-25T03:38:54;10.30;99.90
7738;DHT22;29398;45.328;5.558;2023-02-25T03:40:00;10.30;99.90
7738;DHT22;29398;45.328;5.558;2023-02-25T03:41:07;10.30;99.90
7738;DHT22;29398;45.328;5.558;2023-02-25T03:42:15;10.30;99.90
7738;DHT22;29398;45.328;5.558;2023-02-25T03:43:23;10.40;99.90
7738;DHT22;29398;45.328;5.558;2023-02-25T03:44:29;10.40;99.90
7738;DHT22;29398;45.328;5.558;2023-02-25T03:45:33;10.40;99.90
7738;DHT22;29398;45.328;5.558;2023-02-25T03:46:35;10.40;99.90
7738;DHT22;29398;45.328;5.558;2023-02-25T03:47:39;10.40;99.90
7738;DHT22;29398;45.328;5.558;2023-02-25T03:48:43;10.40;99.90
7738;DHT22;29398;45.328;5.558;2023-02-25T03:49:49;10.30;99.90
7738;DHT22;29398;45.328;5.558;2023-02-25T03:50:55;10.30;99.90
7738;DHT22;29398;45.328;5.558;2023-02-25T03:52:04;10.20;99.90
7738;DHT22;29398;45.328;5.558;2023-02-25T03:53:06;10.30;99.90
7738;DHT22;29398;45.328;5.558;2023-02-25T03:54:30;10.20;99.90
7738;DHT22;29398;45.328;5.558;2023-02-25T03:55:31;10.20;99.90
7738;DHT22;29398;45.328;5.558;2023-02-25T03:56:41;10.20;99.90
7738;DHT22;29398;45.328;5.558;2023-02-25T03:57:44;10.10;99.90
7738;DHT22;29398;45.328;5.558;2023-02-25T03:58:47;10.20;99.90
7738;DHT22;29398;45.328;5.558;2023-02-25T03:59:48;10.10;99.90
7738;DHT22;29398;45.328;5.558;2023-02-25T04:00:55;10.20;99.90
7738;DHT22;29398;45.328;5.558;2023-02-25T04:01:59;10.20;99.90
7738;DHT22;29398;45.328;5.558;2023-02-25T04:03:02;10.20;99.90
7738;DHT22;29398;45.328;5.558;2023-02-25T04:04:05;10.20;99.90
7738;DHT22;29398;45.328;5.558;2023-02-25T04:05:08;10.20;99.90
7738;DHT22;29398;45.328;5.558;2023-02-25T04:06:11;10.20;99.90
7738;DHT22;29398;45.328;5.558;2023-02-25T04:07:13;10.20;99.90
7738;DHT22;29398;45.328;5.558;2023-02-25T04:08:14;10.20;99.90
7738;DHT22;29398;45.328;5.558;2023-02-25T04:09:18;10.20;99.90
7738;DHT22;29398;45.328;5.558;2023-02-25T04:10:20;10.20;99.90
7738;DHT22;29398;45.328;5.558;2023-02-25T04:11:23;10.30;99.90
7738;DHT22;29398;45.328;5.558;2023-02-25T04:12:24;10.30;99.90
7738;DHT22;29398;45.328;5.558;2023-02-25T04:13:27;10.30;99.90
7738;DHT22;29398;45.328;5.558;2023-02-25T04:14:28;10.30;99.90
7738;DHT22;29398;45.328;5.558;2023-02-25T04:15:30;10.20;99.90
7738;DHT22;29398;45.328;5.558;2023-02-25T04:16:31;10.10;99.90
7738;DHT22;29398;45.328;5.558;2023-02-25T04:17:34;10.10;99.90
7738;DHT22;29398;45.328;5.558;2023-02-25T04:18:35;10.10;99.90
7738;DHT22;29398;45.328;5.558;2023-02-25T04:19:40;10.10;99.90
7738;DHT22;29398;45.328;5.558;2023-02-25T04:20:42;10.20;99.90
7738;DHT22;29398;45.328;5.558;2023-02-25T04:21:45;10.20;99.90
7738;DHT22;29398;45.328;5.558;2023-02-25T04:22:46;10.30;99.90
7738;DHT22;29398;45.328;5.558;2023-02-25T04:23:48;10.30;99.90
7738;DHT22;29398;45.328;5.558;2023-02-25T04:24:49;10.30;99.90
7738;DHT22;29398;45.328;5.558;2023-02-25T04:25:51;10.30;99.90
7738;DHT22;29398;45.328;5.558;2023-02-25T04:26:52;10.30;99.90
7738;DHT22;29398;45.328;5.558;2023-02-25T04:27:58;10.30;99.90
7738;DHT22;29398;45.328;5.558;2023-02-25T04:28:59;10.30;99.40
7738;DHT22;29398;45.328;5.558;2023-02-25T04:30:01;10.20;99.50
7738;DHT22;29398;45.328;5.558;2023-02-25T04:31:02;10.20;99.70
7738;DHT22;29398;45.328;5.558;2023-02-25T04:32:05;10.20;99.60
7738;DHT22;29398;45.328;5.558;2023-02-25T04:33:06;10.20;99.70
7738;DHT22;29398;45.328;5.558;2023-02-25T04:34:08;10.20;99.50
7738;DHT22;29398;45.328;5.558;2023-02-25T04:35:10;10.20;99.50
7738;DHT22;29398;45.328;5.558;2023-02-25T04:36:22;10.20;99.30
7738;DHT22;29398;45.328;5.558;2023-02-25T04:37:23;10.20;99.30
7738;DHT22;29398;45.328;5.558;2023-02-25T04:38:25;10.20;99.30
7738;DHT22;29398;45.328;5.558;2023-02-25T04:39:27;10.20;99.30
7738;DHT22;29398;45.328;5.558;2023-02-25T04:40:28;10.20;99.40
7738;DHT22;29398;45.328;5.558;2023-02-25T04:41:32;10.20;99.30
7738;DHT22;29398;45.328;5.558;2023-02-25T04:42:34;10.20;99.00
7738;DHT22;29398;45.328;5.558;2023-02-25T04:43:36;10.10;98.90
7738;DHT22;29398;45.328;5.558;2023-02-25T04:44:37;10.20;99.00
7738;DHT22;29398;45.328;5.558;2023-02-25T04:45:39;10.20;99.00
7738;DHT22;29398;45.328;5.558;2023-02-25T04:46:41;10.20;99.00
7738;DHT22;29398;45.328;5.558;2023-02-25T04:47:43;10.20;99.20
7738;DHT22;29398;45.328;5.558;2023-02-25T04:48:44;10.20;99.10
7738;DHT22;29398;45.328;5.558;2023-02-25T04:49:47;10.20;99.00
7738;DHT22;29398;45.328;5.558;2023-02-25T04:50:49;10.20;98.60
7738;DHT22;29398;45.328;5.558;2023-02-25T04:51:51;10.20;98.70
7738;DHT22;29398;45.328;5.558;2023-02-25T04:52:52;10.20;98.80
7738;DHT22;29398;45.328;5.558;2023-02-25T04:53:55;10.20;98.70
7738;DHT22;29398;45.328;5.558;2023-02-25T04:54:56;10.20;98.70
7738;DHT22;29398;45.328;5.558;2023-02-25T04:56:01;10.20;98.40
7738;DHT22;29398;45.328;5.558;2023-02-25T04:57:02;10.20;98.60
7738;DHT22;29398;45.328;5.558;2023-02-25T04:58:04;10.20;98.60
7738;DHT22;29398;45.328;5.558;2023-02-25T04:59:06;10.20;98.70
7738;DHT22;29398;45.328;5.558;2023-02-25T05:00:14;10.10;98.50
7738;DHT22;29398;45.328;5.558;2023-02-25T05:01:16;10.10;98.60
7738;DHT22;29398;45.328;5.558;2023-02-25T05:02:19;10.20;98.40
7738;DHT22;29398;45.328;5.558;2023-02-25T05:03:20;10.10;98.60
7738;DHT22;29398;45.328;5.558;2023-02-25T05:04:23;10.10;98.70
7738;DHT22;29398;45.328;5.558;2023-02-25T05:05:25;10.10;98.70
7738;DHT22;29398;45.328;5.558;2023-02-25T05:06:29;10.20;98.70
7738;DHT22;29398;45.328;5.558;2023-02-25T05:07:30;10.20;98.90
7738;DHT22;29398;45.328;5.558;2023-02-25T05:08:32;10.20;98.80
7738;DHT22;29398;45.328;5.558;2023-02-25T05:09:34;10.20;98.20
7738;DHT22;29398;45.328;5.558;2023-02-25T05:10:36;10.10;98.40
7738;DHT22;29398;45.328;5.558;2023-02-25T05:11:37;10.10;98.80
7738;DHT22;29398;45.328;5.558;2023-02-25T05:12:39;10.10;98.90
7738;DHT22;29398;45.328;5.558;2023-02-25T05:13:41;10.20;98.70
7738;DHT22;29398;45.328;5.558;2023-02-25T05:14:43;10.10;98.40
7738;DHT22;29398;45.328;5.558;2023-02-25T05:15:44;10.10;98.50
7738;DHT22;29398;45.328;5.558;2023-02-25T05:16:47;10.10;98.40
7738;DHT22;29398;45.328;5.558;2023-02-25T05:17:48;10.10;98.20
7738;DHT22;29398;45.328;5.558;2023-02-25T05:18:50;10.00;98.10
7738;DHT22;29398;45.328;5.558;2023-02-25T05:19:51;9.90;98.10
7738;DHT22;29398;45.328;5.558;2023-02-25T05:20:54;9.90;98.60
7738;DHT22;29398;45.328;5.558;2023-02-25T05:21:56;9.80;97.70
7738;DHT22;29398;45.328;5.558;2023-02-25T05:22:58;9.80;98.10
7738;DHT22;29398;45.328;5.558;2023-02-25T05:24:00;9.80;98.40
7738;DHT22;29398;45.328;5.558;2023-02-25T05:25:02;9.70;98.40
7738;DHT22;29398;45.328;5.558;2023-02-25T05:26:03;9.80;98.20
7738;DHT22;29398;45.328;5.558;2023-02-25T05:27:05;9.80;98.00
7738;DHT22;29398;45.328;5.558;2023-02-25T05:28:08;9.90;98.40
7738;DHT22;29398;45.328;5.558;2023-02-25T05:29:11;9.90;98.30
7738;DHT22;29398;45.328;5.558;2023-02-25T05:30:13;9.90;97.80
7738;DHT22;29398;45.328;5.558;2023-02-25T05:31:15;9.90;98.00
7738;DHT22;29398;45.328;5.558;2023-02-25T05:32:16;9.90;97.60
7738;DHT22;29398;45.328;5.558;2023-02-25T05:33:18;9.80;97.20
7738;DHT22;29398;45.328;5.558;2023-02-25T05:34:20;9.80;97.50
7738;DHT22;29398;45.328;5.558;2023-02-25T05:35:23;9.80;97.70
7738;DHT22;29398;45.328;5.558;2023-02-25T05:36:24;9.80;97.50
7738;DHT22;29398;45.328;5.558;2023-02-25T05:37:27;9.80;97.10
7738;DHT22;29398;45.328;5.558;2023-02-25T05:38:31;9.80;97.30
7738;DHT22;29398;45.328;5.558;2023-02-25T05:39:33;9.80;97.20
7738;DHT22;29398;45.328;5.558;2023-02-25T05:40:34;9.80;97.30
7738;DHT22;29398;45.328;5.558;2023-02-25T05:41:36;9.80;97.30
7738;DHT22;29398;45.328;5.558;2023-02-25T05:42:39;9.80;97.10
7738;DHT22;29398;45.328;5.558;2023-02-25T05:43:41;9.80;96.80
7738;DHT22;29398;45.328;5.558;2023-02-25T05:44:44;9.70;96.40
7738;DHT22;29398;45.328;5.558;2023-02-25T05:45:52;9.70;96.70
7738;DHT22;29398;45.328;5.558;2023-02-25T05:46:53;9.70;96.80
7738;DHT22;29398;45.328;5.558;2023-02-25T05:47:55;9.70;96.90
7738;DHT22;29398;45.328;5.558;2023-02-25T05:48:56;9.70;96.80
7738;DHT22;29398;45.328;5.558;2023-02-25T05:49:58;9.70;96.30
7738;DHT22;29398;45.328;5.558;2023-02-25T05:51:01;9.60;96.30
7738;DHT22;29398;45.328;5.558;2023-02-25T05:52:03;9.60;96.70
7738;DHT22;29398;45.328;5.558;2023-02-25T05:53:06;9.60;96.90
7738;DHT22;29398;45.328;5.558;2023-02-25T05:54:09;9.70;98.70
7738;DHT22;29398;45.328;5.558;2023-02-25T05:55:10;9.80;97.60
7738;DHT22;29398;45.328;5.558;2023-02-25T05:56:14;9.60;96.70
7738;DHT22;29398;45.328;5.558;2023-02-25T05:57:15;9.60;96.50
7738;DHT22;29398;45.328;5.558;2023-02-25T05:58:18;9.60;96.50
7738;DHT22;29398;45.328;5.558;2023-02-25T05:59:19;9.60;96.00
7738;DHT22;29398;45.328;5.558;2023-02-25T06:00:22;9.60;96.60
7738;DHT22;29398;45.328;5.558;2023-02-25T06:01:24;9.60;96.90
7738;DHT22;29398;45.328;5.558;2023-02-25T06:02:27;9.60;96.80
7738;DHT22;29398;45.328;5.558;2023-02-25T06:03:28;9.60;96.80
7738;DHT22;29398;45.328;5.558;2023-02-25T06:04:30;9.60;96.80
7738;DHT22;29398;45.328;5.558;2023-02-25T06:05:32;9.60;96.50
7738;DHT22;29398;45.328;5.558;2023-02-25T06:06:34;9.60;96.70
7738;DHT22;29398;45.328;5.558;2023-02-25T06:07:35;9.60;96.70
7738;DHT22;29398;45.328;5.558;2023-02-25T06:08:39;9.60;96.80
7738;DHT22;29398;45.328;5.558;2023-02-25T06:09:40;9.60;96.90
7738;DHT22;29398;45.328;5.558;2023-02-25T06:10:43;9.60;96.90
7738;DHT22;29398;45.328;5.558;2023-02-25T06:11:45;9.60;96.80
7738;DHT22;29398;45.328;5.558;2023-02-25T06:12:47;9.60;96.80
7738;DHT22;29398;45.328;5.558;2023-02-25T06:13:49;9.60;96.30
7738;DHT22;29398;45.328;5.558;2023-02-25T06:14:52;9.60;96.90
7738;DHT22;29398;45.328;5.558;2023-02-25T06:15:53;9.60;96.70
7738;DHT22;29398;45.328;5.558;2023-02-25T06:16:55;9.60;97.00
7738;DHT22;29398;45.328;5.558;2023-02-25T06:17:56;9.60;97.20
7738;DHT22;29398;45.328;5.558;2023-02-25T06:19:00;9.60;96.90
7738;DHT22;29398;45.328;5.558;2023-02-25T06:20:01;9.60;96.80
7738;DHT22;29398;45.328;5.558;2023-02-25T06:21:07;9.70;96.90
7738;DHT22;29398;45.328;5.558;2023-02-25T06:22:08;9.60;96.60
7738;DHT22;29398;45.328;5.558;2023-02-25T06:23:11;9.60;97.40
7738;DHT22;29398;45.328;5.558;2023-02-25T06:24:13;9.50;96.80
7738;DHT22;29398;45.328;5.558;2023-02-25T06:25:16;9.50;97.00
7738;DHT22;29398;45.328;5.558;2023-02-25T06:26:17;9.40;95.70
7738;DHT22;29398;45.328;5.558;2023-02-25T06:27:20;9.40;96.20
7738;DHT22;29398;45.328;5.558;2023-02-25T06:28:21;9.40;96.20
7738;DHT22;29398;45.328;5.558;2023-02-25T06:29:23;9.30;95.30
7738;DHT22;29398;45.328;5.558;2023-02-25T06:30:25;9.30;95.60
7738;DHT22;29398;45.328;5.558;2023-02-25T06:31:27;9.30;95.80
7738;DHT22;29398;45.328;5.558;2023-02-25T06:32:28;9.30;96.10
7738;DHT22;29398;45.328;5.558;2023-02-25T06:33:31;9.30;96.20
7738;DHT22;29398;45.328;5.558;2023-02-25T06:34:32;9.40;96.10
7738;DHT22;29398;45.328;5.558;2023-02-25T06:35:34;9.30;96.00
7738;DHT22;29398;45.328;5.558;2023-02-25T06:36:35;9.30;95.30
7738;DHT22;29398;45.328;5.558;2023-02-25T06:37:37;9.20;95.60
7738;DHT22;29398;45.328;5.558;2023-02-25T06:38:39;9.20;95.50
7738;DHT22;29398;45.328;5.558;2023-02-25T06:39:44;9.20;95.70
7738;DHT22;29398;45.328;5.558;2023-02-25T06:40:45;9.20;96.00
7738;DHT22;29398;45.328;5.558;2023-02-25T06:41:47;9.20;95.90
7738;DHT22;29398;45.328;5.558;2023-02-25T06:42:49;9.20;95.50
7738;DHT22;29398;45.328;5.558;2023-02-25T06:43:51;9.20;96.20
7738;DHT22;29398;45.328;5.558;2023-02-25T06:44:52;9.20;95.70
7738;DHT22;29398;45.328;5.558;2023-02-25T06:45:54;9.10;96.10
7738;DHT22;29398;45.328;5.558;2023-02-25T06:46:55;9.10;96.30
7738;DHT22;29398;45.328;5.558;2023-02-25T06:47:58;9.20;96.30
7738;DHT22;29398;45.328;5.558;2023-02-25T06:48:59;9.20;96.30
7738;DHT22;29398;45.328;5.558;2023-02-25T06:50:01;9.20;95.90
7738;DHT22;29398;45.328;5.558;2023-02-25T06:51:02;9.20;95.80
7738;DHT22;29398;45.328;5.558;2023-02-25T06:52:08;9.30;96.10
7738;DHT22;29398;45.328;5.558;2023-02-25T06:53:10;9.30;95.80
7738;DHT22;29398;45.328;5.558;2023-02-25T06:54:11;9.30;95.30
7738;DHT22;29398;45.328;5.558;2023-02-25T06:55:15;9.30;95.30
7738;DHT22;29398;45.328;5.558;2023-02-25T06:56:16;9.30;95.20
7738;DHT22;29398;45.328;5.558;2023-02-25T06:57:19;9.30;95.50